createdAt,value
2023-06-07T00:01:06.926Z,153300.38
2023-06-07T00:03:37.536Z,153292.75
2023-06-07T00:06:05.859Z,153310.56
2023-06-07T00:08:32.270Z,153324.56
2023-06-07T00:10:58.505Z,153294.03
2023-06-07T00:13:24.809Z,153304.22
2023-06-07T00:15:51.345Z,153314.38
2023-06-07T00:18:19.980Z,153315.63
2023-06-07T00:20:46.608Z,153288.94
2023-06-07T00:23:15.922Z,153322.03
2023-06-07T00:25:42.326Z,153299.09
2023-06-07T00:28:08.286Z,153327.13
2023-06-07T00:30:34.094Z,153332.19
2023-06-07T00:33:00.066Z,153301.69
2023-06-07T00:35:25.933Z,153232.97
2023-06-07T00:37:51.815Z,153262.19
2023-06-07T00:40:17.742Z,153258.38
2023-06-07T00:42:43.654Z,153217.63
2023-06-07T00:45:09.707Z,153229.16
2023-06-07T00:47:39.392Z,153238.03
2023-06-07T00:50:06.571Z,153240.56
2023-06-07T00:52:35.104Z,153215.09
2023-06-07T00:55:02.720Z,153160.41
2023-06-07T00:57:30.051Z,153138.78
2023-06-07T00:59:56.425Z,153142.59
2023-06-07T01:02:22.495Z,153165.47
2023-06-07T01:04:50.080Z,153142.59
2023-06-07T01:07:17.938Z,153156.59
2023-06-07T01:09:44.085Z,153175.69
2023-06-07T01:12:14.330Z,153193.47
2023-06-07T01:14:42.791Z,153194.75
2023-06-07T01:17:11.916Z,153189.63
2023-06-07T01:19:39.593Z,153165.47
2023-06-07T01:22:07.056Z,153175.69
2023-06-07T01:24:36.055Z,153156.59
2023-06-07T01:27:04.965Z,153143.88
2023-06-07T01:29:34.656Z,153142.59
2023-06-07T01:32:05.281Z,153108.25
2023-06-07T01:34:33.118Z,153101.91
2023-06-07T01:37:00.051Z,153101.91
2023-06-07T01:39:27.009Z,153099.31
2023-06-07T01:41:53.415Z,153105.72
2023-06-07T01:44:21.451Z,153123.53
2023-06-07T01:46:47.626Z,153134.94
2023-06-07T01:49:14.219Z,153184.56
2023-06-07T01:51:40.185Z,153241.84
2023-06-07T01:54:06.619Z,153231.69
2023-06-07T01:56:40.208Z,153249.50
2023-06-07T01:59:28.810Z,153271.13
2023-06-07T02:02:10.483Z,153262.19
2023-06-07T02:04:42.725Z,153274.94
2023-06-07T02:07:15.643Z,153276.19
2023-06-07T02:09:44.473Z,153283.88
2023-06-07T02:12:11.038Z,153266.06
2023-06-07T02:14:37.339Z,153276.19
2023-06-07T02:17:09.433Z,153274.94
2023-06-07T02:19:36.094Z,153280.00
2023-06-07T02:22:02.024Z,153296.56
2023-06-07T02:24:27.842Z,153300.38
2023-06-07T02:26:54.448Z,153290.22
2023-06-07T02:29:20.830Z,153272.41
2023-06-07T02:31:50.549Z,153264.78
2023-06-07T02:34:16.661Z,153248.25
2023-06-07T02:36:42.951Z,153230.44
2023-06-07T02:39:09.724Z,153260.94
2023-06-07T02:41:35.650Z,153263.47
2023-06-07T02:44:01.673Z,153252.03
2023-06-07T02:46:27.595Z,153243.13
2023-06-07T02:48:53.441Z,153197.28
2023-06-07T02:51:19.325Z,153184.56
2023-06-07T02:53:46.014Z,153143.88
2023-06-07T02:56:12.436Z,153148.94
2023-06-07T02:58:38.731Z,153143.88
2023-06-07T03:01:08.093Z,153166.75
2023-06-07T03:03:37.435Z,153159.13
2023-06-07T03:06:04.848Z,153108.25
2023-06-07T03:08:31.508Z,153113.31
2023-06-07T03:10:57.753Z,153140.06
2023-06-07T03:13:24.295Z,153115.88
2023-06-07T03:15:50.328Z,153152.75
2023-06-07T03:18:17.726Z,153147.66
2023-06-07T03:20:43.916Z,153067.56
2023-06-07T03:23:10.112Z,153047.19
2023-06-07T03:25:36.483Z,153045.91
2023-06-07T03:28:02.910Z,153019.22
2023-06-07T03:30:29.138Z,153052.31
2023-06-07T03:32:55.439Z,153034.50
2023-06-07T03:35:21.694Z,153045.91
2023-06-07T03:37:50.493Z,153019.22
2023-06-07T03:40:16.384Z,152967.09
2023-06-07T03:42:42.227Z,152958.16
2023-06-07T03:45:08.496Z,152951.78
2023-06-07T03:47:34.511Z,152953.06
2023-06-07T03:50:00.482Z,152960.72
2023-06-07T03:52:26.404Z,152968.38
2023-06-07T03:54:52.375Z,152982.38
2023-06-07T03:57:18.229Z,152958.16
2023-06-07T03:59:44.136Z,152951.78
2023-06-07T04:02:10.108Z,152932.72
2023-06-07T04:04:35.998Z,152890.78
2023-06-07T04:07:02.785Z,152885.72
2023-06-07T04:09:28.942Z,152921.31
2023-06-07T04:11:54.878Z,152934.00
2023-06-07T04:14:21.214Z,152926.38
2023-06-07T04:16:47.724Z,152895.84
2023-06-07T04:19:13.652Z,152867.91
2023-06-07T04:21:39.759Z,152824.69
2023-06-07T04:24:06.248Z,152856.47
2023-06-07T04:26:32.350Z,152866.66
2023-06-07T04:28:58.802Z,152881.88
2023-06-07T04:31:29.583Z,152864.06
2023-06-07T04:34:01.883Z,152847.53
2023-06-07T04:36:29.025Z,152862.81
2023-06-07T04:38:59.204Z,152884.41
2023-06-07T04:41:33.063Z,152857.72
2023-06-07T04:44:03.746Z,152870.47
2023-06-07T04:46:31.238Z,152846.28
2023-06-07T04:48:57.961Z,152806.88
2023-06-07T04:51:26.512Z,152832.34
2023-06-07T04:54:04.794Z,152856.47
2023-06-07T04:56:30.953Z,152843.75
2023-06-07T04:58:56.987Z,152831.06
2023-06-07T05:01:23.405Z,152801.81
2023-06-07T05:03:49.945Z,152798.00
2023-06-07T05:06:19.264Z,152819.63
2023-06-07T05:08:45.640Z,152789.09
2023-06-07T05:11:11.543Z,152784.03
2023-06-07T05:13:37.396Z,152772.56
2023-06-07T05:16:04.617Z,152735.72
2023-06-07T05:18:30.731Z,152720.47
2023-06-07T05:20:56.864Z,152766.22
2023-06-07T05:23:22.755Z,152705.25
2023-06-07T05:25:48.633Z,152747.19
2023-06-07T05:28:14.671Z,152795.47
2023-06-07T05:30:40.562Z,152836.13
2023-06-07T05:33:07.248Z,152773.84
2023-06-07T05:35:33.162Z,152742.13
2023-06-07T05:37:59.246Z,152742.13
2023-06-07T05:40:25.073Z,152762.44
2023-06-07T05:42:51.028Z,152771.31
2023-06-07T05:45:19.121Z,152762.44
2023-06-07T05:47:46.246Z,152770.03
2023-06-07T05:50:12.404Z,152756.03
2023-06-07T05:52:40.753Z,152764.97
2023-06-07T05:55:08.052Z,152761.16
2023-06-07T05:57:35.142Z,152697.63
2023-06-07T06:00:01.021Z,152683.59
2023-06-07T06:02:30.209Z,152686.16
2023-06-07T06:04:56.947Z,152672.19
2023-06-07T06:07:22.894Z,152679.78
2023-06-07T06:09:48.748Z,152658.19
2023-06-07T06:12:14.559Z,152606.13
2023-06-07T06:14:40.522Z,152598.50
2023-06-07T06:17:06.634Z,152573.09
2023-06-07T06:19:32.564Z,152592.13
2023-06-07T06:21:58.393Z,152532.47
2023-06-07T06:24:24.333Z,152528.66
2023-06-07T06:26:50.976Z,152529.94
2023-06-07T06:29:17.469Z,152551.50
2023-06-07T06:31:44.275Z,152578.19
2023-06-07T06:34:10.653Z,152582.00
2023-06-07T06:36:36.776Z,152590.88
2023-06-07T06:39:04.150Z,152589.59
2023-06-07T06:41:30.682Z,152576.88
2023-06-07T06:43:57.604Z,152592.13
2023-06-07T06:46:23.518Z,152597.25
2023-06-07T06:49:02.773Z,152604.84
2023-06-07T06:51:35.278Z,152602.31
2023-06-07T06:54:01.158Z,152604.84
2023-06-07T06:56:27.250Z,152639.16
2023-06-07T06:58:53.167Z,152660.72
2023-06-07T07:01:19.001Z,152645.47
2023-06-07T07:03:44.848Z,152650.59
2023-06-07T07:06:10.776Z,152693.75
2023-06-07T07:08:37.176Z,152705.25
2023-06-07T07:11:03.664Z,152723.06
2023-06-07T07:13:29.661Z,152698.88
2023-06-07T07:15:55.891Z,152720.47
2023-06-07T07:18:21.909Z,152730.66
2023-06-07T07:20:47.738Z,152734.47
2023-06-07T07:23:13.913Z,152749.72
2023-06-07T07:25:41.055Z,152796.75
2023-06-07T07:28:06.887Z,152836.13
2023-06-07T07:30:32.825Z,152904.78
2023-06-07T07:32:58.781Z,152864.06
2023-06-07T07:35:25.347Z,152852.66
2023-06-07T07:37:54.092Z,152857.72
2023-06-07T07:40:20.375Z,152907.31
2023-06-07T07:42:46.288Z,152946.72
2023-06-07T07:45:12.203Z,152991.25
2023-06-07T07:47:38.072Z,153033.22
2023-06-07T07:50:06.102Z,153034.50
2023-06-07T07:52:32.127Z,153007.78
2023-06-07T07:54:58.049Z,153000.16
2023-06-07T07:57:23.877Z,152977.28
2023-06-07T07:59:49.784Z,152922.56
2023-06-07T08:02:15.781Z,152920.00
2023-06-07T08:04:42.435Z,152972.16
2023-06-07T08:07:08.652Z,152965.81
2023-06-07T08:09:34.478Z,153009.03
2023-06-07T08:12:00.399Z,153068.84
2023-06-07T08:14:26.202Z,153094.25
2023-06-07T08:16:54.222Z,153161.66
2023-06-07T08:19:20.116Z,153212.56
2023-06-07T08:21:47.749Z,153128.59
2023-06-07T08:24:13.747Z,153138.78
2023-06-07T08:26:39.608Z,153112.06
2023-06-07T08:29:05.500Z,153108.25
2023-06-07T08:31:32.228Z,153062.44
2023-06-07T08:33:58.112Z,153049.75
2023-06-07T08:36:24.213Z,153076.44
2023-06-07T08:38:50.096Z,153072.63
2023-06-07T08:41:16.193Z,153025.56
2023-06-07T08:43:44.527Z,153062.44
2023-06-07T08:46:12.148Z,153066.28
2023-06-07T08:48:39.983Z,153073.91
2023-06-07T08:51:09.132Z,153090.44
2023-06-07T08:53:59.826Z,153115.88
2023-06-07T08:56:28.906Z,153099.31
2023-06-07T08:58:56.258Z,153146.41
2023-06-07T09:01:23.955Z,153136.19
2023-06-07T09:03:53.463Z,153104.44
2023-06-07T09:06:21.619Z,153035.75
2023-06-07T09:08:48.067Z,153030.69
2023-06-07T09:11:17.266Z,153052.31
2023-06-07T09:13:43.309Z,153005.22
2023-06-07T09:16:11.541Z,153001.44
2023-06-07T09:18:50.864Z,153025.56
2023-06-07T09:21:21.917Z,153009.03
2023-06-07T09:23:48.596Z,152961.97
2023-06-07T09:26:16.483Z,153019.22
2023-06-07T09:28:42.608Z,153029.44
2023-06-07T09:31:08.924Z,153091.72
2023-06-07T09:33:35.256Z,153103.19
2023-06-07T09:36:16.169Z,153108.25
2023-06-07T09:38:42.472Z,153151.47
2023-06-07T09:41:10.207Z,153183.28
2023-06-07T09:43:55.071Z,153239.31
2023-06-07T09:46:21.981Z,153273.66
2023-06-07T09:48:48.871Z,153262.19
2023-06-07T09:51:15.958Z,153224.03
2023-06-07T09:53:56.086Z,153262.19
2023-06-07T09:56:23.098Z,153254.59
2023-06-07T09:58:50.127Z,153418.75
2023-06-07T10:01:34.758Z,153574.13
2023-06-07T10:04:05.037Z,153625.03
2023-06-07T10:06:35.053Z,153644.13
2023-06-07T10:09:04.241Z,153761.38
2023-06-07T10:11:34.898Z,153756.31
2023-06-07T10:14:11.629Z,153674.72
2023-06-07T10:16:43.584Z,153618.69
2023-06-07T10:19:23.489Z,153617.41
2023-06-07T10:21:53.932Z,153560.13
2023-06-07T10:25:08.906Z,153539.75
2023-06-07T10:27:44.019Z,153556.31
2023-06-07T10:30:12.578Z,153631.44
2023-06-07T10:32:42.095Z,153659.41
2023-06-07T10:35:15.296Z,153749.91
2023-06-07T10:37:42.960Z,153887.53
2023-06-07T10:40:15.415Z,154034.16
2023-06-07T10:42:44.174Z,154049.47
2023-06-07T10:45:17.182Z,154100.47
2023-06-07T10:47:43.869Z,154052.00
2023-06-07T10:50:30.901Z,154002.28
2023-06-07T10:53:01.125Z,153979.34
2023-06-07T10:55:31.975Z,154026.53
2023-06-07T10:57:59.422Z,153927.06
2023-06-07T11:00:30.481Z,153855.66
2023-06-07T11:03:05.562Z,153716.78
2023-06-07T11:05:51.222Z,153737.19
2023-06-07T11:08:24.185Z,153760.13
2023-06-07T11:10:50.187Z,153734.59
2023-06-07T11:13:16.021Z,153772.88
2023-06-07T11:15:42.405Z,153760.13
2023-06-07T11:18:13.266Z,153771.56
2023-06-07T11:20:43.788Z,153808.53
2023-06-07T11:23:30.096Z,153746.09
2023-06-07T11:26:02.095Z,153741.00
2023-06-07T11:28:30.101Z,153729.53
2023-06-07T11:30:56.519Z,153678.53
2023-06-07T11:33:23.012Z,153747.38
2023-06-07T11:35:50.050Z,153786.84
2023-06-07T11:38:16.670Z,153735.94
2023-06-07T11:40:44.139Z,153742.28
2023-06-07T11:43:14.259Z,153766.47
2023-06-07T11:45:43.942Z,153928.34
2023-06-07T11:48:10.520Z,154076.22
2023-06-07T11:50:40.700Z,154117.09
2023-06-07T11:53:13.324Z,154182.09
2023-06-07T11:55:40.000Z,154210.19
2023-06-07T11:58:06.494Z,154236.94
2023-06-07T12:00:34.404Z,154164.25
2023-06-07T12:03:01.542Z,154308.38
2023-06-07T12:05:31.238Z,154429.66
2023-06-07T12:08:05.236Z,154354.38
2023-06-07T12:10:38.875Z,154226.75
2023-06-07T12:13:08.305Z,154080.06
2023-06-07T12:15:35.103Z,154048.19
2023-06-07T12:18:02.777Z,153950.00
2023-06-07T12:20:29.492Z,153915.59
2023-06-07T12:23:05.235Z,154006.09
2023-06-07T12:25:31.895Z,154136.22
2023-06-07T12:27:57.805Z,154277.75
2023-06-07T12:30:33.353Z,154404.09
2023-06-07T12:32:59.879Z,154498.56
2023-06-07T12:35:25.829Z,154517.75
2023-06-07T12:37:51.660Z,154460.25
2023-06-07T12:40:17.505Z,154286.69
2023-06-07T12:42:43.329Z,154207.63
2023-06-07T12:45:10.033Z,154156.63
2023-06-07T12:47:35.925Z,154133.63
2023-06-07T12:50:01.945Z,154133.63
2023-06-07T12:52:27.879Z,154092.78
2023-06-07T12:54:53.845Z,154083.88
2023-06-07T12:57:19.759Z,154078.75
2023-06-07T12:59:45.819Z,154082.63
2023-06-07T13:02:11.681Z,153988.25
2023-06-07T13:04:38.687Z,153939.84
2023-06-07T13:07:05.113Z,153914.31
2023-06-07T13:09:30.924Z,153848.03
2023-06-07T13:11:58.104Z,153804.69
2023-06-07T13:14:24.041Z,153772.88
2023-06-07T13:16:49.956Z,153679.78
2023-06-07T13:19:16.103Z,153648.00
2023-06-07T13:21:42.299Z,153661.97
2023-06-07T13:24:09.079Z,153649.25
2023-06-07T13:26:35.014Z,153682.38
2023-06-07T13:29:01.735Z,153640.31
2023-06-07T13:31:27.967Z,153650.53
2023-06-07T13:33:53.914Z,153646.72
2023-06-07T13:36:19.964Z,153625.03
2023-06-07T13:38:46.129Z,153637.78
2023-06-07T13:41:12.029Z,153700.25
2023-06-07T13:46:06.780Z,153583.03
2023-06-07T13:48:32.889Z,153607.19
2023-06-07T13:50:59.159Z,153589.38
2023-06-07T13:53:25.143Z,153562.66
2023-06-07T13:55:51.245Z,153541.00
2023-06-07T13:58:18.416Z,153483.72
2023-06-07T14:00:44.322Z,153471.00
2023-06-07T14:03:10.362Z,153412.41
2023-06-07T14:05:36.999Z,153356.41
2023-06-07T14:08:03.173Z,153337.31
2023-06-07T14:10:30.904Z,153334.72
2023-06-07T14:12:57.073Z,153350.00
2023-06-07T14:15:24.024Z,153320.75
2023-06-07T14:17:49.958Z,153343.66
2023-06-07T14:20:16.077Z,153361.47
2023-06-07T14:22:41.986Z,153351.28
2023-06-07T14:25:08.410Z,153372.91
2023-06-07T14:27:34.569Z,153350.00
2023-06-07T14:30:00.435Z,153329.66
2023-06-07T14:32:26.299Z,153357.66
2023-06-07T14:34:52.229Z,153337.31
2023-06-07T14:37:18.451Z,153370.34
2023-06-07T14:39:44.342Z,153408.53
2023-06-07T14:42:11.867Z,153407.25
2023-06-07T14:44:39.008Z,153464.63
2023-06-07T14:47:05.279Z,153464.63
2023-06-07T14:49:31.339Z,153471.00
2023-06-07T14:51:57.217Z,153486.28
2023-06-07T14:54:23.064Z,153524.47
2023-06-07T14:56:48.967Z,153519.38
2023-06-07T14:59:14.864Z,153572.84
2023-06-07T15:01:41.323Z,153506.63
2023-06-07T15:04:07.338Z,153488.81
2023-06-07T15:06:33.156Z,153544.81
2023-06-07T15:08:58.994Z,153665.81
2023-06-07T15:11:25.958Z,153709.16
2023-06-07T15:13:52.455Z,153737.19
2023-06-07T15:16:18.822Z,153814.91
2023-06-07T15:18:44.655Z,153775.41
2023-06-07T15:21:10.530Z,153798.31
2023-06-07T15:23:36.968Z,153808.53
2023-06-07T15:26:02.958Z,153797.06
2023-06-07T15:28:28.885Z,153762.66
2023-06-07T15:30:54.911Z,153727.00
2023-06-07T15:33:20.960Z,153732.06
2023-06-07T15:35:46.730Z,153678.53
2023-06-07T15:38:13.626Z,153737.19
2023-06-07T15:40:42.703Z,153781.75
2023-06-07T15:43:08.678Z,153746.09
2023-06-07T15:45:34.703Z,153807.22
2023-06-07T15:48:02.141Z,153802.13
2023-06-07T15:50:29.584Z,153732.06
2023-06-07T15:52:57.319Z,153748.63
2023-06-07T15:55:24.063Z,153785.56
2023-06-07T15:57:50.724Z,153716.78
2023-06-07T16:00:35.938Z,153738.47
2023-06-07T16:03:02.871Z,153690.06
2023-06-07T16:05:29.409Z,153673.44
2023-06-07T16:07:55.249Z,153658.16
2023-06-07T16:10:21.264Z,153636.50
2023-06-07T16:12:47.212Z,153619.94
2023-06-07T16:15:13.278Z,153589.38
2023-06-07T16:17:39.382Z,153576.66
2023-06-07T16:20:06.084Z,153609.78
2023-06-07T16:22:32.158Z,153574.13
2023-06-07T16:24:58.089Z,153576.66
2023-06-07T16:27:24.405Z,153561.38
2023-06-07T16:29:50.358Z,153583.03
2023-06-07T16:32:16.202Z,153639.03
2023-06-07T16:34:42.066Z,153672.16
2023-06-07T16:37:08.942Z,153623.75
2023-06-07T16:39:34.768Z,153658.16
2023-06-07T16:42:00.688Z,153641.59
2023-06-07T16:44:26.497Z,153630.16
2023-06-07T16:46:55.925Z,153675.97
2023-06-07T16:49:23.615Z,153687.50
2023-06-07T16:51:49.973Z,153664.53
2023-06-07T16:54:16.344Z,153665.81
2023-06-07T16:56:42.282Z,153579.22
2023-06-07T16:59:08.173Z,153590.69
2023-06-07T17:01:34.781Z,153621.22
2023-06-07T17:04:00.782Z,153625.03
2023-06-07T17:06:29.328Z,153586.81
2023-06-07T17:08:55.268Z,153557.56
2023-06-07T17:11:21.087Z,153524.47
2023-06-07T17:13:46.927Z,153483.72
2023-06-07T17:16:12.996Z,153492.63
2023-06-07T17:18:39.203Z,153459.50
2023-06-07T17:21:05.305Z,153413.66
2023-06-07T17:23:31.789Z,153395.84
2023-06-07T17:25:57.646Z,153428.94
2023-06-07T17:28:23.611Z,153446.78
2023-06-07T17:30:50.099Z,153468.44
2023-06-07T17:33:16.638Z,153464.63
2023-06-07T17:35:43.093Z,153448.03
2023-06-07T17:38:08.942Z,153446.78
2023-06-07T17:40:35.336Z,153451.84
2023-06-07T17:43:01.693Z,153444.19
2023-06-07T17:45:27.503Z,153462.06
2023-06-07T17:47:54.543Z,153444.19
2023-06-07T17:50:32.809Z,153440.38
2023-06-07T17:53:08.375Z,153425.09
2023-06-07T17:55:34.313Z,153395.84
2023-06-07T17:58:00.147Z,153392.03
2023-06-07T18:00:27.059Z,153361.47
2023-06-07T18:02:52.979Z,153276.19
2023-06-07T18:05:18.838Z,153286.41
2023-06-07T18:07:44.622Z,153296.56
2023-06-07T18:10:10.518Z,153245.66
2023-06-07T18:12:37.904Z,153241.84
2023-06-07T18:15:04.306Z,153216.38
2023-06-07T18:17:30.243Z,153253.31
2023-06-07T18:19:56.121Z,153220.22
2023-06-07T18:22:21.959Z,153218.97
2023-06-07T18:24:47.784Z,153202.38
2023-06-07T18:27:13.613Z,153151.47
2023-06-07T18:29:39.541Z,153127.31
2023-06-07T18:32:07.502Z,153124.78
2023-06-07T18:34:35.119Z,153120.97
2023-06-07T18:37:01.288Z,153128.59
2023-06-07T18:39:28.322Z,153142.59
2023-06-07T18:41:54.164Z,153136.19
2023-06-07T18:44:20.077Z,153159.13
2023-06-07T18:46:46.441Z,153164.22
2023-06-07T18:49:12.335Z,153154.00
2023-06-07T18:51:38.401Z,153155.28
2023-06-07T18:54:04.323Z,153155.28
2023-06-07T18:56:30.199Z,153120.97
2023-06-07T18:58:56.349Z,153117.13
2023-06-07T19:01:24.017Z,153120.97
2023-06-07T19:03:55.718Z,153100.59
2023-06-07T19:06:21.760Z,153109.53
2023-06-07T19:08:47.685Z,153122.25
2023-06-07T19:11:13.619Z,153122.25
2023-06-07T19:13:39.762Z,153105.72
2023-06-07T19:16:05.983Z,153120.97
2023-06-07T19:18:31.924Z,153101.91
2023-06-07T19:20:57.801Z,153057.38
2023-06-07T19:23:23.724Z,153081.53
2023-06-07T19:25:49.619Z,153054.84
2023-06-07T19:28:15.812Z,153077.72
2023-06-07T19:30:41.706Z,153073.91
2023-06-07T19:33:10.213Z,153086.63
2023-06-07T19:35:36.139Z,153070.09
2023-06-07T19:38:01.997Z,153058.63
2023-06-07T19:40:28.797Z,153058.63
2023-06-07T19:42:54.939Z,153063.72
2023-06-07T19:45:21.872Z,153066.28
2023-06-07T19:47:47.919Z,153043.38
2023-06-07T19:50:13.884Z,153064.97
2023-06-07T19:52:40.856Z,153034.50
2023-06-07T19:55:07.591Z,153028.09
2023-06-07T19:57:33.846Z,153030.69
2023-06-07T19:59:59.719Z,153054.84
2023-06-07T20:02:26.210Z,153012.88
2023-06-07T20:04:52.222Z,152988.69
2023-06-07T20:07:18.141Z,152984.91
2023-06-07T20:09:44.130Z,153002.69
2023-06-07T20:12:11.320Z,152974.72
2023-06-07T20:14:39.958Z,152981.09
2023-06-07T20:17:08.406Z,152968.38
2023-06-07T20:19:34.471Z,152984.91
2023-06-07T20:22:00.289Z,152963.25
2023-06-07T20:24:26.153Z,152992.50
2023-06-07T20:26:52.038Z,152976.03
2023-06-07T20:29:18.366Z,152997.63
2023-06-07T20:31:45.735Z,152987.44
2023-06-07T20:34:11.823Z,153000.16
2023-06-07T20:36:38.333Z,152995.09
2023-06-07T20:39:04.549Z,152987.44
2023-06-07T20:41:30.516Z,152992.50
2023-06-07T20:43:56.367Z,152998.91
2023-06-07T20:46:22.253Z,153009.03
2023-06-07T20:48:48.158Z,153003.97
2023-06-07T20:51:14.294Z,153001.44
2023-06-07T20:53:41.761Z,152978.56
2023-06-07T20:56:07.629Z,152974.72
2023-06-07T20:58:33.538Z,152942.91
2023-06-07T21:00:59.432Z,152981.09
2023-06-07T21:03:25.538Z,152973.44
2023-06-07T21:05:51.446Z,152964.50
2023-06-07T21:08:17.318Z,152965.81
2023-06-07T21:10:43.717Z,152978.56
2023-06-07T21:13:09.908Z,152961.97
2023-06-07T21:15:35.761Z,152968.38
2023-06-07T21:18:01.585Z,153006.50
2023-06-07T21:20:27.557Z,152987.44
2023-06-07T21:22:53.418Z,152992.50
2023-06-07T21:25:19.292Z,153006.50
2023-06-07T21:27:45.219Z,153011.63
2023-06-07T21:30:11.337Z,153007.78
2023-06-07T21:32:37.244Z,153011.63
2023-06-07T21:35:03.890Z,153007.78
2023-06-07T21:37:29.781Z,153006.50
2023-06-07T21:39:55.671Z,152970.91
2023-06-07T21:42:21.560Z,152968.38
2023-06-07T21:44:47.471Z,152972.16
2023-06-07T21:47:13.273Z,152973.44
2023-06-07T21:49:39.143Z,152973.44
2023-06-07T21:52:05.603Z,152984.91
2023-06-07T21:54:43.651Z,152976.03
2023-06-07T21:57:09.901Z,152947.97
2023-06-07T21:59:36.107Z,152965.81
2023-06-07T22:02:01.920Z,152995.09
2023-06-07T22:04:27.898Z,152981.09
2023-06-07T22:06:54.303Z,152951.78
2023-06-07T22:09:21.464Z,152937.78
2023-06-07T22:11:47.374Z,152934.00
2023-06-07T22:14:13.879Z,152950.53
2023-06-07T22:16:47.279Z,152936.53
2023-06-07T22:19:15.151Z,152932.72
2023-06-07T22:21:45.937Z,152923.84
2023-06-07T22:24:12.589Z,152945.44
2023-06-07T22:26:38.963Z,152945.44
2023-06-07T22:29:05.162Z,152937.78
2023-06-07T22:31:37.032Z,152914.91
2023-06-07T22:34:07.057Z,152925.09
2023-06-07T22:36:40.724Z,152904.78
2023-06-07T22:39:08.370Z,152927.66
2023-06-07T22:41:35.089Z,152945.44
2023-06-07T22:44:01.509Z,152936.53
2023-06-07T22:46:27.576Z,152906.06
2023-06-07T22:49:01.066Z,152890.78
2023-06-07T22:51:30.987Z,152913.66
2023-06-07T22:53:57.538Z,152894.59
2023-06-07T22:56:23.760Z,152879.34
2023-06-07T22:58:50.070Z,152857.72
2023-06-07T23:01:16.127Z,152871.72
2023-06-07T23:03:42.266Z,152853.94
2023-06-07T23:06:08.140Z,152855.19
2023-06-07T23:08:34.143Z,152855.19
2023-06-07T23:11:00.562Z,152889.53
2023-06-07T23:13:30.077Z,152873.00
2023-06-07T23:15:56.080Z,152857.72
2023-06-07T23:18:23.312Z,152873.00
2023-06-07T23:20:50.160Z,152871.72
2023-06-07T23:23:16.942Z,152851.41
2023-06-07T23:25:43.800Z,152845.00
2023-06-07T23:28:10.266Z,152852.66
2023-06-07T23:30:36.852Z,152853.94
2023-06-07T23:33:07.559Z,152864.06
2023-06-07T23:35:34.133Z,152876.78
2023-06-07T23:38:00.465Z,152870.47
2023-06-07T23:40:26.927Z,152860.25
2023-06-07T23:42:52.950Z,152846.28
2023-06-07T23:45:21.071Z,152845.00
2023-06-07T23:47:46.971Z,152836.13
2023-06-07T23:50:12.980Z,152836.13
2023-06-07T23:52:40.914Z,152841.19
2023-06-07T23:55:07.524Z,152864.06
2023-06-07T23:57:33.629Z,152873.00
2023-06-07T23:59:59.693Z,152839.94
